sensor_id;sensor_type;location;lat;lon;timestamp;P1;durP1;ratioP1;P2;durP2;ratioP2
44588;SDS011;30298;52.562;13.414;2023-04-22T00:02:11;9.20;;;6.03;;
44588;SDS011;30298;52.562;13.414;2023-04-22T00:04:41;8.65;;;6.35;;
44588;SDS011;30298;52.562;13.414;2023-04-22T00:07:07;8.40;;;6.35;;
44588;SDS011;30298;52.562;13.414;2023-04-22T00:09:32;11.77;;;6.90;;
44588;SDS011;30298;52.562;13.414;2023-04-22T00:11:58;9.17;;;6.27;;
44588;SDS011;30298;52.562;13.414;2023-04-22T00:14:23;7.53;;;6.20;;
44588;SDS011;30298;52.562;13.414;2023-04-22T00:16:48;11.33;;;6.70;;
44588;SDS011;30298;52.562;13.414;2023-04-22T00:19:14;10.60;;;6.47;;
44588;SDS011;30298;52.562;13.414;2023-04-22T00:21:40;12.38;;;6.22;;
44588;SDS011;30298;52.562;13.414;2023-04-22T00:24:05;11.43;;;5.80;;
44588;SDS011;30298;52.562;13.414;2023-04-22T00:26:31;11.05;;;6.97;;
44588;SDS011;30298;52.562;13.414;2023-04-22T00:28:56;8.90;;;6.17;;
44588;SDS011;30298;52.562;13.414;2023-04-22T00:31:21;11.13;;;6.33;;
44588;SDS011;30298;52.562;13.414;2023-04-22T00:33:46;12.70;;;6.50;;
44588;SDS011;30298;52.562;13.414;2023-04-22T00:36:12;12.23;;;7.17;;
44588;SDS011;30298;52.562;13.414;2023-04-22T00:38:37;9.87;;;6.60;;
44588;SDS011;30298;52.562;13.414;2023-04-22T00:41:02;9.27;;;6.30;;
44588;SDS011;30298;52.562;13.414;2023-04-22T00:43:28;12.20;;;7.45;;
44588;SDS011;30298;52.562;13.414;2023-04-22T00:45:53;15.60;;;6.83;;
44588;SDS011;30298;52.562;13.414;2023-04-22T00:48:20;9.60;;;6.80;;
44588;SDS011;30298;52.562;13.414;2023-04-22T00:50:46;9.30;;;6.83;;
44588;SDS011;30298;52.562;13.414;2023-04-22T00:53:11;11.50;;;6.37;;
44588;SDS011;30298;52.562;13.414;2023-04-22T00:55:36;8.53;;;6.23;;
44588;SDS011;30298;52.562;13.414;2023-04-22T00:58:02;9.57;;;6.53;;
44588;SDS011;30298;52.562;13.414;2023-04-22T01:00:27;9.10;;;6.38;;
44588;SDS011;30298;52.562;13.414;2023-04-22T01:02:55;11.67;;;7.43;;
44588;SDS011;30298;52.562;13.414;2023-04-22T01:05:22;9.65;;;6.82;;
44588;SDS011;30298;52.562;13.414;2023-04-22T01:07:47;12.68;;;7.40;;
44588;SDS011;30298;52.562;13.414;2023-04-22T01:10:13;9.93;;;6.63;;
44588;SDS011;30298;52.562;13.414;2023-04-22T01:12:38;10.17;;;7.00;;
44588;SDS011;30298;52.562;13.414;2023-04-22T01:15:03;11.10;;;6.90;;
44588;SDS011;30298;52.562;13.414;2023-04-22T01:17:29;13.80;;;7.43;;
44588;SDS011;30298;52.562;13.414;2023-04-22T01:19:56;11.23;;;7.13;;
44588;SDS011;30298;52.562;13.414;2023-04-22T01:22:23;10.60;;;7.50;;
44588;SDS011;30298;52.562;13.414;2023-04-22T01:24:50;11.77;;;7.85;;
44588;SDS011;30298;52.562;13.414;2023-04-22T01:27:15;12.90;;;7.20;;
44588;SDS011;30298;52.562;13.414;2023-04-22T01:29:40;14.17;;;7.37;;
44588;SDS011;30298;52.562;13.414;2023-04-22T01:32:06;10.70;;;7.10;;
44588;SDS011;30298;52.562;13.414;2023-04-22T01:34:31;12.23;;;7.30;;
44588;SDS011;30298;52.562;13.414;2023-04-22T01:36:56;10.53;;;7.17;;
44588;SDS011;30298;52.562;13.414;2023-04-22T01:39:21;13.67;;;7.00;;
44588;SDS011;30298;52.562;13.414;2023-04-22T01:41:47;12.93;;;7.00;;
44588;SDS011;30298;52.562;13.414;2023-04-22T01:44:12;9.77;;;7.53;;
44588;SDS011;30298;52.562;13.414;2023-04-22T01:46:38;16.38;;;7.47;;
44588;SDS011;30298;52.562;13.414;2023-04-22T01:49:03;13.23;;;7.97;;
44588;SDS011;30298;52.562;13.414;2023-04-22T01:51:28;11.17;;;6.80;;
44588;SDS011;30298;52.562;13.414;2023-04-22T01:53:54;9.43;;;6.43;;
44588;SDS011;30298;52.562;13.414;2023-04-22T01:56:19;9.57;;;6.83;;
44588;SDS011;30298;52.562;13.414;2023-04-22T01:58:45;10.48;;;6.75;;
44588;SDS011;30298;52.562;13.414;2023-04-22T02:01:11;10.67;;;6.60;;
44588;SDS011;30298;52.562;13.414;2023-04-22T02:06:02;11.83;;;7.30;;
44588;SDS011;30298;52.562;13.414;2023-04-22T02:08:27;11.23;;;6.77;;
44588;SDS011;30298;52.562;13.414;2023-04-22T02:10:52;11.83;;;7.83;;
44588;SDS011;30298;52.562;13.414;2023-04-22T02:13:18;11.10;;;7.67;;
44588;SDS011;30298;52.562;13.414;2023-04-22T02:15:43;12.40;;;7.23;;
44588;SDS011;30298;52.562;13.414;2023-04-22T02:18:08;11.17;;;6.50;;
44588;SDS011;30298;52.562;13.414;2023-04-22T02:20:34;12.47;;;7.10;;
44588;SDS011;30298;52.562;13.414;2023-04-22T02:22:59;10.95;;;7.35;;
44588;SDS011;30298;52.562;13.414;2023-04-22T02:25:25;10.33;;;7.23;;
44588;SDS011;30298;52.562;13.414;2023-04-22T02:27:51;12.52;;;7.40;;
44588;SDS011;30298;52.562;13.414;2023-04-22T02:30:16;9.07;;;6.37;;
44588;SDS011;30298;52.562;13.414;2023-04-22T02:32:42;13.20;;;7.80;;
44588;SDS011;30298;52.562;13.414;2023-04-22T02:35:08;15.17;;;7.53;;
44588;SDS011;30298;52.562;13.414;2023-04-22T02:37:34;9.45;;;7.07;;
44588;SDS011;30298;52.562;13.414;2023-04-22T02:39:59;12.30;;;7.10;;
44588;SDS011;30298;52.562;13.414;2023-04-22T02:42:25;14.03;;;7.13;;
44588;SDS011;30298;52.562;13.414;2023-04-22T02:44:50;12.33;;;7.77;;
44588;SDS011;30298;52.562;13.414;2023-04-22T02:47:15;12.47;;;7.67;;
44588;SDS011;30298;52.562;13.414;2023-04-22T02:49:41;11.27;;;7.67;;
44588;SDS011;30298;52.562;13.414;2023-04-22T02:52:06;11.03;;;7.37;;
44588;SDS011;30298;52.562;13.414;2023-04-22T02:54:31;12.20;;;7.40;;
44588;SDS011;30298;52.562;13.414;2023-04-22T02:56:56;11.43;;;7.50;;
44588;SDS011;30298;52.562;13.414;2023-04-22T02:59:22;12.97;;;7.57;;
44588;SDS011;30298;52.562;13.414;2023-04-22T03:01:47;11.37;;;6.93;;
44588;SDS011;30298;52.562;13.414;2023-04-22T03:04:13;12.43;;;7.93;;
44588;SDS011;30298;52.562;13.414;2023-04-22T03:06:39;12.68;;;7.40;;
44588;SDS011;30298;52.562;13.414;2023-04-22T03:09:04;11.90;;;8.00;;
44588;SDS011;30298;52.562;13.414;2023-04-22T03:11:29;10.63;;;7.50;;
44588;SDS011;30298;52.562;13.414;2023-04-22T03:13:55;10.37;;;7.60;;
44588;SDS011;30298;52.562;13.414;2023-04-22T03:16:22;11.13;;;7.73;;
44588;SDS011;30298;52.562;13.414;2023-04-22T03:18:47;12.27;;;8.65;;
44588;SDS011;30298;52.562;13.414;2023-04-22T03:21:12;12.60;;;7.83;;
44588;SDS011;30298;52.562;13.414;2023-04-22T03:23:38;11.27;;;7.10;;
44588;SDS011;30298;52.562;13.414;2023-04-22T03:26:03;12.20;;;7.50;;
44588;SDS011;30298;52.562;13.414;2023-04-22T03:28:28;10.97;;;7.33;;
44588;SDS011;30298;52.562;13.414;2023-04-22T03:30:53;13.37;;;7.60;;
44588;SDS011;30298;52.562;13.414;2023-04-22T03:33:19;15.60;;;8.67;;
44588;SDS011;30298;52.562;13.414;2023-04-22T03:35:46;13.23;;;7.20;;
44588;SDS011;30298;52.562;13.414;2023-04-22T03:38:11;14.40;;;8.30;;
44588;SDS011;30298;52.562;13.414;2023-04-22T03:40:37;11.43;;;7.33;;
44588;SDS011;30298;52.562;13.414;2023-04-22T03:43:04;10.93;;;8.00;;
44588;SDS011;30298;52.562;13.414;2023-04-22T03:45:29;8.83;;;6.90;;
44588;SDS011;30298;52.562;13.414;2023-04-22T03:47:55;19.00;;;7.37;;
44588;SDS011;30298;52.562;13.414;2023-04-22T03:50:20;9.83;;;6.87;;
44588;SDS011;30298;52.562;13.414;2023-04-22T03:52:45;12.23;;;7.83;;
44588;SDS011;30298;52.562;13.414;2023-04-22T03:55:11;13.00;;;8.13;;
44588;SDS011;30298;52.562;13.414;2023-04-22T03:57:36;12.93;;;8.73;;
44588;SDS011;30298;52.562;13.414;2023-04-22T04:00:01;11.90;;;8.17;;
44588;SDS011;30298;52.562;13.414;2023-04-22T04:02:27;10.97;;;7.80;;
44588;SDS011;30298;52.562;13.414;2023-04-22T04:04:52;12.97;;;7.63;;
44588;SDS011;30298;52.562;13.414;2023-04-22T04:07:17;12.60;;;7.73;;
44588;SDS011;30298;52.562;13.414;2023-04-22T04:09:43;9.37;;;7.40;;
44588;SDS011;30298;52.562;13.414;2023-04-22T04:12:08;10.23;;;7.23;;
44588;SDS011;30298;52.562;13.414;2023-04-22T04:14:33;13.60;;;8.10;;
44588;SDS011;30298;52.562;13.414;2023-04-22T04:16:59;10.10;;;7.60;;
44588;SDS011;30298;52.562;13.414;2023-04-22T04:19:24;14.17;;;8.07;;
44588;SDS011;30298;52.562;13.414;2023-04-22T04:21:49;13.07;;;7.27;;
44588;SDS011;30298;52.562;13.414;2023-04-22T04:24:15;13.85;;;8.45;;
44588;SDS011;30298;52.562;13.414;2023-04-22T04:26:40;11.93;;;7.73;;
44588;SDS011;30298;52.562;13.414;2023-04-22T04:29:06;18.17;;;8.43;;
44588;SDS011;30298;52.562;13.414;2023-04-22T04:31:32;14.10;;;7.93;;
44588;SDS011;30298;52.562;13.414;2023-04-22T04:33:58;13.83;;;9.17;;
44588;SDS011;30298;52.562;13.414;2023-04-22T04:36:24;15.10;;;8.32;;
44588;SDS011;30298;52.562;13.414;2023-04-22T04:38:53;13.00;;;8.65;;
44588;SDS011;30298;52.562;13.414;2023-04-22T04:41:18;14.18;;;8.23;;
44588;SDS011;30298;52.562;13.414;2023-04-22T04:43:45;12.80;;;8.07;;
44588;SDS011;30298;52.562;13.414;2023-04-22T04:46:10;14.18;;;8.32;;
44588;SDS011;30298;52.562;13.414;2023-04-22T04:48:36;14.27;;;8.83;;
44588;SDS011;30298;52.562;13.414;2023-04-22T04:51:01;20.10;;;9.10;;
44588;SDS011;30298;52.562;13.414;2023-04-22T04:53:26;12.03;;;8.30;;
44588;SDS011;30298;52.562;13.414;2023-04-22T04:55:51;12.60;;;7.67;;
44588;SDS011;30298;52.562;13.414;2023-04-22T04:58:17;14.53;;;8.90;;
44588;SDS011;30298;52.562;13.414;2023-04-22T05:00:42;15.17;;;8.27;;
44588;SDS011;30298;52.562;13.414;2023-04-22T05:03:07;13.17;;;8.23;;
44588;SDS011;30298;52.562;13.414;2023-04-22T05:05:33;13.07;;;8.37;;
44588;SDS011;30298;52.562;13.414;2023-04-22T05:07:58;14.93;;;8.90;;
44588;SDS011;30298;52.562;13.414;2023-04-22T05:10:23;14.40;;;8.47;;
44588;SDS011;30298;52.562;13.414;2023-04-22T05:12:49;13.43;;;8.70;;
44588;SDS011;30298;52.562;13.414;2023-04-22T05:15:15;12.52;;;8.98;;
44588;SDS011;30298;52.562;13.414;2023-04-22T05:17:40;17.67;;;9.93;;
44588;SDS011;30298;52.562;13.414;2023-04-22T05:20:06;16.27;;;8.67;;
44588;SDS011;30298;52.562;13.414;2023-04-22T05:22:31;12.85;;;9.00;;
44588;SDS011;30298;52.562;13.414;2023-04-22T05:24:56;13.30;;;8.53;;
44588;SDS011;30298;52.562;13.414;2023-04-22T05:27:22;13.40;;;8.50;;
44588;SDS011;30298;52.562;13.414;2023-04-22T05:29:47;13.27;;;9.35;;
44588;SDS011;30298;52.562;13.414;2023-04-22T05:32:13;11.20;;;8.90;;
44588;SDS011;30298;52.562;13.414;2023-04-22T05:34:38;13.63;;;9.15;;
44588;SDS011;30298;52.562;13.414;2023-04-22T05:37:03;13.57;;;9.53;;
44588;SDS011;30298;52.562;13.414;2023-04-22T05:39:29;15.10;;;8.20;;
44588;SDS011;30298;52.562;13.414;2023-04-22T05:41:55;13.32;;;8.60;;
44588;SDS011;30298;52.562;13.414;2023-04-22T05:44:20;13.00;;;8.53;;
44588;SDS011;30298;52.562;13.414;2023-04-22T05:46:45;12.43;;;8.63;;
44588;SDS011;30298;52.562;13.414;2023-04-22T05:49:11;13.27;;;8.43;;
44588;SDS011;30298;52.562;13.414;2023-04-22T05:51:36;12.57;;;8.00;;
44588;SDS011;30298;52.562;13.414;2023-04-22T05:54:01;12.30;;;8.20;;
44588;SDS011;30298;52.562;13.414;2023-04-22T05:56:27;13.80;;;8.10;;
44588;SDS011;30298;52.562;13.414;2023-04-22T05:58:52;13.83;;;8.40;;
44588;SDS011;30298;52.562;13.414;2023-04-22T06:01:17;12.97;;;8.77;;
44588;SDS011;30298;52.562;13.414;2023-04-22T06:03:42;13.40;;;8.60;;
44588;SDS011;30298;52.562;13.414;2023-04-22T06:06:08;12.30;;;8.43;;
44588;SDS011;30298;52.562;13.414;2023-04-22T06:08:33;11.03;;;8.33;;
44588;SDS011;30298;52.562;13.414;2023-04-22T06:10:58;14.47;;;8.93;;
44588;SDS011;30298;52.562;13.414;2023-04-22T06:13:24;13.10;;;9.17;;
44588;SDS011;30298;52.562;13.414;2023-04-22T06:15:49;11.90;;;8.10;;
44588;SDS011;30298;52.562;13.414;2023-04-22T06:18:14;17.93;;;8.50;;
44588;SDS011;30298;52.562;13.414;2023-04-22T06:20:40;14.00;;;8.73;;
44588;SDS011;30298;52.562;13.414;2023-04-22T06:23:05;13.27;;;8.80;;
44588;SDS011;30298;52.562;13.414;2023-04-22T06:25:33;17.07;;;9.27;;
44588;SDS011;30298;52.562;13.414;2023-04-22T06:27:59;11.10;;;8.30;;
44588;SDS011;30298;52.562;13.414;2023-04-22T06:30:25;14.47;;;8.60;;
44588;SDS011;30298;52.562;13.414;2023-04-22T06:32:50;16.60;;;9.32;;
44588;SDS011;30298;52.562;13.414;2023-04-22T06:35:16;14.88;;;8.85;;
44588;SDS011;30298;52.562;13.414;2023-04-22T06:37:41;13.60;;;8.52;;
44588;SDS011;30298;52.562;13.414;2023-04-22T06:40:06;14.33;;;8.93;;
44588;SDS011;30298;52.562;13.414;2023-04-22T06:42:32;13.45;;;8.90;;
44588;SDS011;30298;52.562;13.414;2023-04-22T06:44:57;17.13;;;9.33;;
44588;SDS011;30298;52.562;13.414;2023-04-22T06:47:22;12.90;;;8.50;;
44588;SDS011;30298;52.562;13.414;2023-04-22T06:49:48;14.03;;;8.80;;
44588;SDS011;30298;52.562;13.414;2023-04-22T06:54:39;13.90;;;8.05;;
44588;SDS011;30298;52.562;13.414;2023-04-22T06:57:04;11.97;;;8.17;;
44588;SDS011;30298;52.562;13.414;2023-04-22T06:59:31;13.88;;;8.55;;
44588;SDS011;30298;52.562;13.414;2023-04-22T07:01:57;13.67;;;9.40;;
44588;SDS011;30298;52.562;13.414;2023-04-22T07:04:22;13.23;;;8.87;;
44588;SDS011;30298;52.562;13.414;2023-04-22T07:06:47;13.70;;;8.10;;
44588;SDS011;30298;52.562;13.414;2023-04-22T07:09:12;15.13;;;8.97;;
44588;SDS011;30298;52.562;13.414;2023-04-22T07:11:38;18.57;;;9.53;;
44588;SDS011;30298;52.562;13.414;2023-04-22T07:14:06;11.13;;;8.75;;
44588;SDS011;30298;52.562;13.414;2023-04-22T07:16:31;12.07;;;8.77;;
44588;SDS011;30298;52.562;13.414;2023-04-22T07:18:57;13.73;;;8.97;;
44588;SDS011;30298;52.562;13.414;2023-04-22T07:21:23;14.80;;;8.93;;
44588;SDS011;30298;52.562;13.414;2023-04-22T07:23:48;11.67;;;8.33;;
44588;SDS011;30298;52.562;13.414;2023-04-22T07:26:14;13.23;;;8.60;;
44588;SDS011;30298;52.562;13.414;2023-04-22T07:28:39;13.70;;;8.83;;
44588;SDS011;30298;52.562;13.414;2023-04-22T07:31:05;14.13;;;7.85;;
44588;SDS011;30298;52.562;13.414;2023-04-22T07:33:30;13.87;;;8.40;;
44588;SDS011;30298;52.562;13.414;2023-04-22T07:35:55;12.77;;;8.83;;
44588;SDS011;30298;52.562;13.414;2023-04-22T07:38:20;12.90;;;8.40;;
44588;SDS011;30298;52.562;13.414;2023-04-22T07:40:46;12.97;;;8.80;;
44588;SDS011;30298;52.562;13.414;2023-04-22T07:43:11;19.10;;;8.70;;
44588;SDS011;30298;52.562;13.414;2023-04-22T07:45:36;15.83;;;8.33;;
44588;SDS011;30298;52.562;13.414;2023-04-22T07:48:02;12.87;;;8.20;;
44588;SDS011;30298;52.562;13.414;2023-04-22T07:52:53;11.60;;;8.17;;
44588;SDS011;30298;52.562;13.414;2023-04-22T07:55:18;16.33;;;8.63;;
44588;SDS011;30298;52.562;13.414;2023-04-22T07:57:44;12.93;;;8.68;;
44588;SDS011;30298;52.562;13.414;2023-04-22T08:00:12;13.03;;;8.00;;
44588;SDS011;30298;52.562;13.414;2023-04-22T08:02:38;15.00;;;8.55;;
44588;SDS011;30298;52.562;13.414;2023-04-22T08:05:03;10.43;;;7.43;;
44588;SDS011;30298;52.562;13.414;2023-04-22T08:07:29;10.60;;;8.30;;
44588;SDS011;30298;52.562;13.414;2023-04-22T08:09:54;12.17;;;8.23;;
44588;SDS011;30298;52.562;13.414;2023-04-22T08:12:20;14.23;;;8.13;;
44588;SDS011;30298;52.562;13.414;2023-04-22T08:14:46;13.45;;;7.93;;
44588;SDS011;30298;52.562;13.414;2023-04-22T08:17:11;12.77;;;8.00;;
44588;SDS011;30298;52.562;13.414;2023-04-22T08:19:40;12.47;;;8.60;;
44588;SDS011;30298;52.562;13.414;2023-04-22T08:22:06;12.18;;;8.57;;
44588;SDS011;30298;52.562;13.414;2023-04-22T08:24:32;11.20;;;7.63;;
44588;SDS011;30298;52.562;13.414;2023-04-22T08:26:57;15.20;;;7.80;;
44588;SDS011;30298;52.562;13.414;2023-04-22T08:29:22;15.07;;;8.57;;
44588;SDS011;30298;52.562;13.414;2023-04-22T08:31:48;12.57;;;8.15;;
44588;SDS011;30298;52.562;13.414;2023-04-22T08:34:13;12.53;;;7.67;;
44588;SDS011;30298;52.562;13.414;2023-04-22T08:36:39;12.00;;;8.77;;
44588;SDS011;30298;52.562;13.414;2023-04-22T08:39:04;11.25;;;8.43;;
44588;SDS011;30298;52.562;13.414;2023-04-22T08:41:30;13.15;;;8.20;;
44588;SDS011;30298;52.562;13.414;2023-04-22T08:43:57;10.80;;;7.70;;
44588;SDS011;30298;52.562;13.414;2023-04-22T08:46:23;13.25;;;7.60;;
44588;SDS011;30298;52.562;13.414;2023-04-22T08:48:49;12.77;;;8.18;;
44588;SDS011;30298;52.562;13.414;2023-04-22T08:51:16;13.15;;;8.00;;
44588;SDS011;30298;52.562;13.414;2023-04-22T08:53:42;10.70;;;7.18;;
44588;SDS011;30298;52.562;13.414;2023-04-22T08:56:07;11.02;;;7.40;;
44588;SDS011;30298;52.562;13.414;2023-04-22T08:58:33;13.73;;;7.85;;
44588;SDS011;30298;52.562;13.414;2023-04-22T09:00:58;12.33;;;7.43;;
44588;SDS011;30298;52.562;13.414;2023-04-22T09:03:24;8.73;;;7.07;;
44588;SDS011;30298;52.562;13.414;2023-04-22T09:05:50;12.80;;;7.50;;
44588;SDS011;30298;52.562;13.414;2023-04-22T09:08:16;11.65;;;6.70;;
44588;SDS011;30298;52.562;13.414;2023-04-22T09:10:42;14.10;;;6.97;;
44588;SDS011;30298;52.562;13.414;2023-04-22T09:13:07;11.77;;;7.53;;
44588;SDS011;30298;52.562;13.414;2023-04-22T09:15:33;9.43;;;6.88;;
44588;SDS011;30298;52.562;13.414;2023-04-22T09:18:02;10.55;;;7.10;;
44588;SDS011;30298;52.562;13.414;2023-04-22T09:20:28;14.57;;;7.63;;
44588;SDS011;30298;52.562;13.414;2023-04-22T09:22:55;10.05;;;7.20;;
44588;SDS011;30298;52.562;13.414;2023-04-22T09:27:52;14.07;;;7.10;;
44588;SDS011;30298;52.562;13.414;2023-04-22T09:30:18;11.40;;;8.40;;
44588;SDS011;30298;52.562;13.414;2023-04-22T09:32:56;14.93;;;7.07;;
44588;SDS011;30298;52.562;13.414;2023-04-22T09:35:25;14.32;;;6.88;;
44588;SDS011;30298;52.562;13.414;2023-04-22T09:37:51;10.70;;;7.32;;
44588;SDS011;30298;52.562;13.414;2023-04-22T09:40:17;12.48;;;6.50;;
44588;SDS011;30298;52.562;13.414;2023-04-22T09:42:55;11.02;;;7.07;;
44588;SDS011;30298;52.562;13.414;2023-04-22T09:45:28;9.52;;;6.90;;
44588;SDS011;30298;52.562;13.414;2023-04-22T09:47:55;10.57;;;6.40;;
44588;SDS011;30298;52.562;13.414;2023-04-22T09:50:21;8.00;;;6.70;;
44588;SDS011;30298;52.562;13.414;2023-04-22T09:52:52;7.43;;;6.18;;
44588;SDS011;30298;52.562;13.414;2023-04-22T09:55:18;9.10;;;6.30;;
44588;SDS011;30298;52.562;13.414;2023-04-22T09:57:53;9.73;;;6.13;;
44588;SDS011;30298;52.562;13.414;2023-04-22T10:00:20;10.48;;;5.82;;
44588;SDS011;30298;52.562;13.414;2023-04-22T10:02:45;10.80;;;5.82;;
44588;SDS011;30298;52.562;13.414;2023-04-22T10:05:16;7.97;;;6.00;;
44588;SDS011;30298;52.562;13.414;2023-04-22T10:07:42;8.70;;;5.35;;
44588;SDS011;30298;52.562;13.414;2023-04-22T10:12:42;14.38;;;6.47;;
44588;SDS011;30298;52.562;13.414;2023-04-22T10:15:08;10.23;;;6.25;;
44588;SDS011;30298;52.562;13.414;2023-04-22T10:17:36;9.20;;;5.70;;
44588;SDS011;30298;52.562;13.414;2023-04-22T10:20:02;14.18;;;7.13;;
44588;SDS011;30298;52.562;13.414;2023-04-22T10:22:30;8.15;;;5.85;;
44588;SDS011;30298;52.562;13.414;2023-04-22T10:24:58;9.05;;;5.40;;
44588;SDS011;30298;52.562;13.414;2023-04-22T10:27:24;8.23;;;5.57;;
44588;SDS011;30298;52.562;13.414;2023-04-22T10:29:49;8.75;;;5.80;;
44588;SDS011;30298;52.562;13.414;2023-04-22T10:34:46;14.32;;;6.47;;
44588;SDS011;30298;52.562;13.414;2023-04-22T10:37:12;10.85;;;5.70;;
44588;SDS011;30298;52.562;13.414;2023-04-22T10:42:04;8.95;;;5.18;;
44588;SDS011;30298;52.562;13.414;2023-04-22T10:44:50;8.50;;;5.82;;
44588;SDS011;30298;52.562;13.414;2023-04-22T10:47:25;9.82;;;5.53;;
44588;SDS011;30298;52.562;13.414;2023-04-22T10:49:51;8.18;;;5.32;;
44588;SDS011;30298;52.562;13.414;2023-04-22T10:52:33;10.05;;;5.70;;
44588;SDS011;30298;52.562;13.414;2023-04-22T10:54:59;6.43;;;4.95;;
44588;SDS011;30298;52.562;13.414;2023-04-22T10:57:28;9.07;;;5.63;;
44588;SDS011;30298;52.562;13.414;2023-04-22T10:59:57;10.43;;;5.30;;
44588;SDS011;30298;52.562;13.414;2023-04-22T11:02:24;10.95;;;6.53;;
44588;SDS011;30298;52.562;13.414;2023-04-22T11:04:50;8.73;;;5.57;;
44588;SDS011;30298;52.562;13.414;2023-04-22T11:10:09;9.87;;;5.50;;
44588;SDS011;30298;52.562;13.414;2023-04-22T11:19:58;9.97;;;5.43;;
44588;SDS011;30298;52.562;13.414;2023-04-22T11:24:55;8.85;;;5.30;;
44588;SDS011;30298;52.562;13.414;2023-04-22T11:27:21;9.48;;;6.53;;
44588;SDS011;30298;52.562;13.414;2023-04-22T11:30:03;8.75;;;5.38;;
44588;SDS011;30298;52.562;13.414;2023-04-22T11:32:28;8.10;;;5.63;;
44588;SDS011;30298;52.562;13.414;2023-04-22T11:37:19;7.35;;;5.30;;
44588;SDS011;30298;52.562;13.414;2023-04-22T11:39:44;6.63;;;4.68;;
44588;SDS011;30298;52.562;13.414;2023-04-22T11:42:13;6.78;;;4.88;;
44588;SDS011;30298;52.562;13.414;2023-04-22T11:44:39;10.02;;;4.90;;
44588;SDS011;30298;52.562;13.414;2023-04-22T11:47:04;8.05;;;5.57;;
44588;SDS011;30298;52.562;13.414;2023-04-22T11:49:29;10.95;;;6.00;;
44588;SDS011;30298;52.562;13.414;2023-04-22T11:51:57;6.45;;;4.95;;
44588;SDS011;30298;52.562;13.414;2023-04-22T11:54:34;7.35;;;4.88;;
44588;SDS011;30298;52.562;13.414;2023-04-22T11:57:01;15.70;;;7.47;;
44588;SDS011;30298;52.562;13.414;2023-04-22T11:59:26;7.85;;;5.07;;
44588;SDS011;30298;52.562;13.414;2023-04-22T12:01:52;7.97;;;5.82;;
44588;SDS011;30298;52.562;13.414;2023-04-22T12:04:21;7.25;;;5.07;;
44588;SDS011;30298;52.562;13.414;2023-04-22T12:06:46;9.05;;;4.80;;
44588;SDS011;30298;52.562;13.414;2023-04-22T12:09:15;7.75;;;5.03;;
44588;SDS011;30298;52.562;13.414;2023-04-22T12:11:40;10.20;;;4.95;;
44588;SDS011;30298;52.562;13.414;2023-04-22T12:14:05;6.72;;;4.63;;
44588;SDS011;30298;52.562;13.414;2023-04-22T12:16:40;8.25;;;5.45;;
44588;SDS011;30298;52.562;13.414;2023-04-22T12:19:06;9.80;;;5.15;;
44588;SDS011;30298;52.562;13.414;2023-04-22T12:21:31;7.43;;;5.32;;
44588;SDS011;30298;52.562;13.414;2023-04-22T12:23:57;8.80;;;5.22;;
44588;SDS011;30298;52.562;13.414;2023-04-22T12:26:23;6.65;;;4.90;;
44588;SDS011;30298;52.562;13.414;2023-04-22T12:28:51;8.27;;;5.15;;
44588;SDS011;30298;52.562;13.414;2023-04-22T12:31:16;6.05;;;4.72;;
44588;SDS011;30298;52.562;13.414;2023-04-22T12:33:45;9.55;;;4.82;;
44588;SDS011;30298;52.562;13.414;2023-04-22T12:36:11;10.32;;;5.13;;
44588;SDS011;30298;52.562;13.414;2023-04-22T12:38:36;10.18;;;5.55;;
44588;SDS011;30298;52.562;13.414;2023-04-22T12:41:02;6.53;;;5.13;;
44588;SDS011;30298;52.562;13.414;2023-04-22T12:43:28;9.07;;;5.55;;
44588;SDS011;30298;52.562;13.414;2023-04-22T12:45:53;8.68;;;4.78;;
44588;SDS011;30298;52.562;13.414;2023-04-22T12:48:19;6.55;;;4.45;;
44588;SDS011;30298;52.562;13.414;2023-04-22T12:50:44;6.70;;;5.10;;
44588;SDS011;30298;52.562;13.414;2023-04-22T12:53:10;11.48;;;5.13;;
44588;SDS011;30298;52.562;13.414;2023-04-22T12:55:35;10.13;;;5.53;;
44588;SDS011;30298;52.562;13.414;2023-04-22T12:58:01;10.00;;;5.20;;
44588;SDS011;30298;52.562;13.414;2023-04-22T13:00:29;9.65;;;5.15;;
44588;SDS011;30298;52.562;13.414;2023-04-22T13:02:54;7.75;;;4.70;;
44588;SDS011;30298;52.562;13.414;2023-04-22T13:05:20;6.07;;;4.57;;
44588;SDS011;30298;52.562;13.414;2023-04-22T13:07:45;7.97;;;4.35;;
44588;SDS011;30298;52.562;13.414;2023-04-22T13:10:12;9.05;;;4.60;;
44588;SDS011;30298;52.562;13.414;2023-04-22T13:12:38;8.65;;;5.03;;
44588;SDS011;30298;52.562;13.414;2023-04-22T13:15:03;8.57;;;5.30;;
44588;SDS011;30298;52.562;13.414;2023-04-22T13:17:29;5.13;;;4.50;;
44588;SDS011;30298;52.562;13.414;2023-04-22T13:19:55;5.55;;;4.53;;
44588;SDS011;30298;52.562;13.414;2023-04-22T13:22:20;6.75;;;4.90;;
44588;SDS011;30298;52.562;13.414;2023-04-22T13:24:45;9.50;;;5.18;;
44588;SDS011;30298;52.562;13.414;2023-04-22T13:27:11;9.65;;;4.68;;
44588;SDS011;30298;52.562;13.414;2023-04-22T13:29:36;6.65;;;5.20;;
44588;SDS011;30298;52.562;13.414;2023-04-22T13:32:02;7.68;;;4.75;;
44588;SDS011;30298;52.562;13.414;2023-04-22T13:34:27;6.35;;;4.68;;
44588;SDS011;30298;52.562;13.414;2023-04-22T13:36:53;8.38;;;4.60;;
44588;SDS011;30298;52.562;13.414;2023-04-22T13:39:18;6.50;;;5.18;;
44588;SDS011;30298;52.562;13.414;2023-04-22T13:41:44;5.47;;;4.85;;
44588;SDS011;30298;52.562;13.414;2023-04-22T13:44:09;9.07;;;4.80;;
44588;SDS011;30298;52.562;13.414;2023-04-22T13:46:35;7.25;;;4.53;;
44588;SDS011;30298;52.562;13.414;2023-04-22T13:49:00;8.05;;;5.07;;
44588;SDS011;30298;52.562;13.414;2023-04-22T13:51:26;7.45;;;5.07;;
44588;SDS011;30298;52.562;13.414;2023-04-22T13:53:51;10.05;;;5.97;;
44588;SDS011;30298;52.562;13.414;2023-04-22T13:56:16;6.97;;;5.25;;
44588;SDS011;30298;52.562;13.414;2023-04-22T13:58:42;8.88;;;4.78;;
44588;SDS011;30298;52.562;13.414;2023-04-22T14:01:07;8.10;;;5.65;;
44588;SDS011;30298;52.562;13.414;2023-04-22T14:03:33;6.97;;;4.95;;
44588;SDS011;30298;52.562;13.414;2023-04-22T14:06:01;8.32;;;6.00;;
44588;SDS011;30298;52.562;13.414;2023-04-22T14:08:27;7.95;;;5.20;;
44588;SDS011;30298;52.562;13.414;2023-04-22T14:10:56;5.80;;;5.00;;
44588;SDS011;30298;52.562;13.414;2023-04-22T14:13:23;9.18;;;5.28;;
44588;SDS011;30298;52.562;13.414;2023-04-22T14:15:48;6.78;;;5.20;;
44588;SDS011;30298;52.562;13.414;2023-04-22T14:18:14;6.10;;;5.00;;
44588;SDS011;30298;52.562;13.414;2023-04-22T14:20:40;8.27;;;5.03;;
44588;SDS011;30298;52.562;13.414;2023-04-22T14:23:07;5.53;;;4.93;;
44588;SDS011;30298;52.562;13.414;2023-04-22T14:25:32;7.72;;;5.18;;
44588;SDS011;30298;52.562;13.414;2023-04-22T14:27:57;8.60;;;5.70;;
44588;SDS011;30298;52.562;13.414;2023-04-22T14:30:23;9.00;;;5.15;;
44588;SDS011;30298;52.562;13.414;2023-04-22T14:32:48;13.15;;;6.20;;
44588;SDS011;30298;52.562;13.414;2023-04-22T14:35:13;9.27;;;4.72;;
44588;SDS011;30298;52.562;13.414;2023-04-22T14:37:41;8.02;;;5.03;;
44588;SDS011;30298;52.562;13.414;2023-04-22T14:40:09;7.70;;;5.05;;
44588;SDS011;30298;52.562;13.414;2023-04-22T14:42:36;6.18;;;5.05;;
44588;SDS011;30298;52.562;13.414;2023-04-22T14:45:01;7.00;;;4.80;;
44588;SDS011;30298;52.562;13.414;2023-04-22T14:47:26;9.13;;;5.25;;
44588;SDS011;30298;52.562;13.414;2023-04-22T14:49:51;7.10;;;4.90;;
44588;SDS011;30298;52.562;13.414;2023-04-22T14:52:17;8.07;;;4.70;;